sensor_id;sensor_type;location;lat;lon;timestamp;temperature;humidity
17452;DHT22;8843;48.838;9.324;2022-10-18T00:01:39;17.40;86.00
17452;DHT22;8843;48.838;9.324;2022-10-18T00:04:06;17.50;85.90
17452;DHT22;8843;48.838;9.324;2022-10-18T00:06:35;17.40;86.20
17452;DHT22;8843;48.838;9.324;2022-10-18T00:09:02;17.50;85.90
17452;DHT22;8843;48.838;9.324;2022-10-18T00:11:29;17.40;85.50
17452;DHT22;8843;48.838;9.324;2022-10-18T00:13:56;17.50;86.40
17452;DHT22;8843;48.838;9.324;2022-10-18T00:16:23;17.50;86.50
17452;DHT22;8843;48.838;9.324;2022-10-18T00:18:51;17.40;86.30
17452;DHT22;8843;48.838;9.324;2022-10-18T00:21:20;17.40;86.50
17452;DHT22;8843;48.838;9.324;2022-10-18T00:23:50;17.40;86.50
17452;DHT22;8843;48.838;9.324;2022-10-18T00:26:18;17.40;86.30
17452;DHT22;8843;48.838;9.324;2022-10-18T00:28:48;17.40;86.40
17452;DHT22;8843;48.838;9.324;2022-10-18T00:31:17;17.40;87.00
17452;DHT22;8843;48.838;9.324;2022-10-18T00:33:46;17.40;86.30
17452;DHT22;8843;48.838;9.324;2022-10-18T00:36:14;17.50;86.30
17452;DHT22;8843;48.838;9.324;2022-10-18T00:38:42;17.40;87.00
17452;DHT22;8843;48.838;9.324;2022-10-18T00:41:13;17.40;86.40
17452;DHT22;8843;48.838;9.324;2022-10-18T00:43:55;17.40;86.20
17452;DHT22;8843;48.838;9.324;2022-10-18T00:46:23;17.40;87.10
17452;DHT22;8843;48.838;9.324;2022-10-18T00:48:51;17.40;86.30
17452;DHT22;8843;48.838;9.324;2022-10-18T00:51:19;17.40;86.70
17452;DHT22;8843;48.838;9.324;2022-10-18T00:53:47;17.30;85.80
17452;DHT22;8843;48.838;9.324;2022-10-18T00:56:16;17.40;86.60
17452;DHT22;8843;48.838;9.324;2022-10-18T00:58:43;17.40;86.30
17452;DHT22;8843;48.838;9.324;2022-10-18T01:01:11;17.30;85.80
17452;DHT22;8843;48.838;9.324;2022-10-18T01:03:39;17.30;86.10
17452;DHT22;8843;48.838;9.324;2022-10-18T01:06:07;17.30;85.80
17452;DHT22;8843;48.838;9.324;2022-10-18T01:08:44;17.40;86.70
17452;DHT22;8843;48.838;9.324;2022-10-18T01:11:27;17.40;86.50
17452;DHT22;8843;48.838;9.324;2022-10-18T01:14:04;17.40;86.50
17452;DHT22;8843;48.838;9.324;2022-10-18T01:16:38;17.30;86.40
17452;DHT22;8843;48.838;9.324;2022-10-18T01:19:23;17.30;86.50
17452;DHT22;8843;48.838;9.324;2022-10-18T01:22:00;17.40;86.50
17452;DHT22;8843;48.838;9.324;2022-10-18T01:25:00;17.30;86.30
17452;DHT22;8843;48.838;9.324;2022-10-18T01:27:46;17.30;86.40
17452;DHT22;8843;48.838;9.324;2022-10-18T01:30:39;17.30;86.50
17452;DHT22;8843;48.838;9.324;2022-10-18T01:33:20;17.30;86.40
17452;DHT22;8843;48.838;9.324;2022-10-18T01:35:54;17.30;86.60
17452;DHT22;8843;48.838;9.324;2022-10-18T01:38:24;17.30;86.70
17452;DHT22;8843;48.838;9.324;2022-10-18T01:40:52;17.30;86.60
17452;DHT22;8843;48.838;9.324;2022-10-18T01:43:22;17.30;86.70
17452;DHT22;8843;48.838;9.324;2022-10-18T01:45:52;17.30;86.60
17452;DHT22;8843;48.838;9.324;2022-10-18T01:48:21;17.30;86.60
17452;DHT22;8843;48.838;9.324;2022-10-18T01:50:48;17.30;87.20
17452;DHT22;8843;48.838;9.324;2022-10-18T01:53:23;17.30;86.50
17452;DHT22;8843;48.838;9.324;2022-10-18T01:56:02;17.30;86.10
17452;DHT22;8843;48.838;9.324;2022-10-18T01:58:36;17.30;86.70
17452;DHT22;8843;48.838;9.324;2022-10-18T02:01:08;17.30;86.50
17452;DHT22;8843;48.838;9.324;2022-10-18T02:03:39;17.30;86.30
17452;DHT22;8843;48.838;9.324;2022-10-18T02:06:14;17.30;86.60
17452;DHT22;8843;48.838;9.324;2022-10-18T02:08:47;17.30;86.70
17452;DHT22;8843;48.838;9.324;2022-10-18T02:11:16;17.30;86.70
17452;DHT22;8843;48.838;9.324;2022-10-18T02:13:47;17.30;86.80
17452;DHT22;8843;48.838;9.324;2022-10-18T02:16:20;17.30;87.40
17452;DHT22;8843;48.838;9.324;2022-10-18T02:18:51;17.30;86.80
17452;DHT22;8843;48.838;9.324;2022-10-18T02:21:20;17.30;86.80
17452;DHT22;8843;48.838;9.324;2022-10-18T02:23:48;17.30;86.80
17452;DHT22;8843;48.838;9.324;2022-10-18T02:26:15;17.30;86.80
17452;DHT22;8843;48.838;9.324;2022-10-18T02:28:43;17.30;86.90
17452;DHT22;8843;48.838;9.324;2022-10-18T02:31:14;17.30;86.70
17452;DHT22;8843;48.838;9.324;2022-10-18T02:33:50;17.30;86.70
17452;DHT22;8843;48.838;9.324;2022-10-18T02:36:23;17.30;86.70
17452;DHT22;8843;48.838;9.324;2022-10-18T02:38:53;17.30;86.70
17452;DHT22;8843;48.838;9.324;2022-10-18T02:41:23;17.30;86.70
17452;DHT22;8843;48.838;9.324;2022-10-18T02:43:50;17.30;86.70
17452;DHT22;8843;48.838;9.324;2022-10-18T02:46:17;17.20;86.60
17452;DHT22;8843;48.838;9.324;2022-10-18T02:48:45;17.20;86.40
17452;DHT22;8843;48.838;9.324;2022-10-18T02:51:12;17.30;86.70
17452;DHT22;8843;48.838;9.324;2022-10-18T02:53:39;17.20;86.50
17452;DHT22;8843;48.838;9.324;2022-10-18T02:56:06;17.20;86.80
17452;DHT22;8843;48.838;9.324;2022-10-18T02:58:33;17.20;86.40
17452;DHT22;8843;48.838;9.324;2022-10-18T03:01:00;17.20;86.40
17452;DHT22;8843;48.838;9.324;2022-10-18T03:03:27;17.20;86.70
17452;DHT22;8843;48.838;9.324;2022-10-18T03:05:55;17.20;86.70
17452;DHT22;8843;48.838;9.324;2022-10-18T03:08:22;17.20;86.80
17452;DHT22;8843;48.838;9.324;2022-10-18T03:10:49;17.20;86.60
17452;DHT22;8843;48.838;9.324;2022-10-18T03:13:16;17.20;86.40
17452;DHT22;8843;48.838;9.324;2022-10-18T03:15:43;17.20;86.60
17452;DHT22;8843;48.838;9.324;2022-10-18T03:18:09;17.20;86.60
17452;DHT22;8843;48.838;9.324;2022-10-18T03:20:36;17.20;86.70
17452;DHT22;8843;48.838;9.324;2022-10-18T03:23:04;17.20;86.60
17452;DHT22;8843;48.838;9.324;2022-10-18T03:25:32;17.20;86.40
17452;DHT22;8843;48.838;9.324;2022-10-18T03:27:59;17.20;86.30
17452;DHT22;8843;48.838;9.324;2022-10-18T03:30:26;17.10;86.50
17452;DHT22;8843;48.838;9.324;2022-10-18T03:32:53;17.10;86.50
17452;DHT22;8843;48.838;9.324;2022-10-18T03:35:20;17.20;86.50
17452;DHT22;8843;48.838;9.324;2022-10-18T03:37:47;17.20;86.90
17452;DHT22;8843;48.838;9.324;2022-10-18T03:40:15;17.10;86.70
17452;DHT22;8843;48.838;9.324;2022-10-18T03:42:42;17.10;86.40
17452;DHT22;8843;48.838;9.324;2022-10-18T03:45:09;17.10;86.40
17452;DHT22;8843;48.838;9.324;2022-10-18T03:47:36;17.10;86.60
17452;DHT22;8843;48.838;9.324;2022-10-18T03:50:04;17.10;86.70
17452;DHT22;8843;48.838;9.324;2022-10-18T03:52:30;17.10;86.50
17452;DHT22;8843;48.838;9.324;2022-10-18T03:54:57;17.10;86.40
17452;DHT22;8843;48.838;9.324;2022-10-18T03:57:26;17.10;86.40
17452;DHT22;8843;48.838;9.324;2022-10-18T03:59:53;17.10;86.70
17452;DHT22;8843;48.838;9.324;2022-10-18T04:02:19;17.10;86.90
17452;DHT22;8843;48.838;9.324;2022-10-18T04:04:46;17.10;86.70
17452;DHT22;8843;48.838;9.324;2022-10-18T04:07:14;17.10;86.60
17452;DHT22;8843;48.838;9.324;2022-10-18T04:09:41;17.10;86.70
17452;DHT22;8843;48.838;9.324;2022-10-18T04:12:08;17.10;86.70
17452;DHT22;8843;48.838;9.324;2022-10-18T04:14:36;17.00;86.60
17452;DHT22;8843;48.838;9.324;2022-10-18T04:17:03;17.10;86.90
17452;DHT22;8843;48.838;9.324;2022-10-18T04:19:30;17.10;86.50
17452;DHT22;8843;48.838;9.324;2022-10-18T04:21:57;17.10;86.50
17452;DHT22;8843;48.838;9.324;2022-10-18T04:24:23;17.00;86.50
17452;DHT22;8843;48.838;9.324;2022-10-18T04:26:50;17.00;87.00
17452;DHT22;8843;48.838;9.324;2022-10-18T04:29:17;17.00;86.90
17452;DHT22;8843;48.838;9.324;2022-10-18T04:31:45;17.10;87.90
17452;DHT22;8843;48.838;9.324;2022-10-18T04:34:12;17.10;87.00
17452;DHT22;8843;48.838;9.324;2022-10-18T04:36:39;17.10;86.90
17452;DHT22;8843;48.838;9.324;2022-10-18T04:39:06;17.10;87.00
17452;DHT22;8843;48.838;9.324;2022-10-18T04:41:33;17.10;87.00
17452;DHT22;8843;48.838;9.324;2022-10-18T04:44:00;17.10;87.00
17452;DHT22;8843;48.838;9.324;2022-10-18T04:46:27;17.10;86.90
17452;DHT22;8843;48.838;9.324;2022-10-18T04:48:55;17.10;87.00
17452;DHT22;8843;48.838;9.324;2022-10-18T04:51:23;17.10;86.90
17452;DHT22;8843;48.838;9.324;2022-10-18T04:53:50;17.10;87.00
17452;DHT22;8843;48.838;9.324;2022-10-18T04:56:16;17.00;86.60
17452;DHT22;8843;48.838;9.324;2022-10-18T04:58:43;17.00;87.00
17452;DHT22;8843;48.838;9.324;2022-10-18T05:01:10;17.00;86.90
17452;DHT22;8843;48.838;9.324;2022-10-18T05:03:38;17.00;87.00
17452;DHT22;8843;48.838;9.324;2022-10-18T05:06:06;17.10;87.10
17452;DHT22;8843;48.838;9.324;2022-10-18T05:08:34;17.00;86.80
17452;DHT22;8843;48.838;9.324;2022-10-18T05:11:01;17.00;86.60
17452;DHT22;8843;48.838;9.324;2022-10-18T05:13:29;17.00;87.20
17452;DHT22;8843;48.838;9.324;2022-10-18T05:15:56;17.00;86.70
17452;DHT22;8843;48.838;9.324;2022-10-18T05:18:24;17.00;86.70
17452;DHT22;8843;48.838;9.324;2022-10-18T05:20:51;17.00;87.10
17452;DHT22;8843;48.838;9.324;2022-10-18T05:23:19;17.00;87.20
17452;DHT22;8843;48.838;9.324;2022-10-18T05:25:46;17.10;89.40
17452;DHT22;8843;48.838;9.324;2022-10-18T05:28:16;17.20;88.30
17452;DHT22;8843;48.838;9.324;2022-10-18T05:30:43;17.10;87.50
17452;DHT22;8843;48.838;9.324;2022-10-18T05:33:10;17.10;87.70
17452;DHT22;8843;48.838;9.324;2022-10-18T05:35:36;17.00;87.60
17452;DHT22;8843;48.838;9.324;2022-10-18T05:38:04;17.00;87.50
17452;DHT22;8843;48.838;9.324;2022-10-18T05:40:32;17.00;87.20
17452;DHT22;8843;48.838;9.324;2022-10-18T05:42:59;17.00;87.50
17452;DHT22;8843;48.838;9.324;2022-10-18T05:45:26;17.00;87.50
17452;DHT22;8843;48.838;9.324;2022-10-18T05:47:58;16.90;90.00
17452;DHT22;8843;48.838;9.324;2022-10-18T05:50:46;17.00;88.30
17452;DHT22;8843;48.838;9.324;2022-10-18T05:53:25;17.00;88.10
17452;DHT22;8843;48.838;9.324;2022-10-18T05:55:53;17.00;88.00
17452;DHT22;8843;48.838;9.324;2022-10-18T05:58:20;17.00;88.00
17452;DHT22;8843;48.838;9.324;2022-10-18T06:00:47;17.00;87.70
17452;DHT22;8843;48.838;9.324;2022-10-18T06:03:14;17.00;87.70
17452;DHT22;8843;48.838;9.324;2022-10-18T06:05:40;16.90;87.70
17452;DHT22;8843;48.838;9.324;2022-10-18T06:08:07;17.00;87.70
17452;DHT22;8843;48.838;9.324;2022-10-18T06:10:37;16.90;87.60
17452;DHT22;8843;48.838;9.324;2022-10-18T06:13:05;17.00;87.70
17452;DHT22;8843;48.838;9.324;2022-10-18T06:15:32;17.00;87.70
17452;DHT22;8843;48.838;9.324;2022-10-18T06:17:59;16.90;87.50
17452;DHT22;8843;48.838;9.324;2022-10-18T06:20:25;17.00;87.70
17452;DHT22;8843;48.838;9.324;2022-10-18T06:22:52;17.00;87.60
17452;DHT22;8843;48.838;9.324;2022-10-18T06:25:19;16.80;87.00
17452;DHT22;8843;48.838;9.324;2022-10-18T06:27:46;17.00;88.90
17452;DHT22;8843;48.838;9.324;2022-10-18T06:30:14;17.00;88.30
17452;DHT22;8843;48.838;9.324;2022-10-18T06:32:41;17.00;88.00
17452;DHT22;8843;48.838;9.324;2022-10-18T06:35:08;17.00;87.90
17452;DHT22;8843;48.838;9.324;2022-10-18T06:37:35;16.90;88.40
17452;DHT22;8843;48.838;9.324;2022-10-18T06:40:03;16.90;87.70
17452;DHT22;8843;48.838;9.324;2022-10-18T06:42:30;16.90;88.40
17452;DHT22;8843;48.838;9.324;2022-10-18T06:44:57;16.90;87.60
17452;DHT22;8843;48.838;9.324;2022-10-18T06:47:26;16.90;87.60
17452;DHT22;8843;48.838;9.324;2022-10-18T06:49:53;16.90;87.70
17452;DHT22;8843;48.838;9.324;2022-10-18T06:52:19;16.90;87.60
17452;DHT22;8843;48.838;9.324;2022-10-18T06:54:50;16.90;87.60
17452;DHT22;8843;48.838;9.324;2022-10-18T06:57:17;16.90;87.70
17452;DHT22;8843;48.838;9.324;2022-10-18T06:59:44;16.90;87.60
17452;DHT22;8843;48.838;9.324;2022-10-18T07:02:14;16.90;87.70
17452;DHT22;8843;48.838;9.324;2022-10-18T07:04:43;16.90;87.60
17452;DHT22;8843;48.838;9.324;2022-10-18T07:07:10;16.90;87.80
17452;DHT22;8843;48.838;9.324;2022-10-18T07:09:37;16.90;87.80
17452;DHT22;8843;48.838;9.324;2022-10-18T07:12:04;16.90;87.80
17452;DHT22;8843;48.838;9.324;2022-10-18T07:14:31;16.90;87.80
17452;DHT22;8843;48.838;9.324;2022-10-18T07:16:58;16.90;87.80
17452;DHT22;8843;48.838;9.324;2022-10-18T07:19:25;16.90;87.80
17452;DHT22;8843;48.838;9.324;2022-10-18T07:21:53;16.90;88.50
17452;DHT22;8843;48.838;9.324;2022-10-18T07:24:20;16.90;87.90
17452;DHT22;8843;48.838;9.324;2022-10-18T07:26:47;16.90;87.80
17452;DHT22;8843;48.838;9.324;2022-10-18T07:29:14;16.90;87.90
17452;DHT22;8843;48.838;9.324;2022-10-18T07:31:41;16.90;87.90
17452;DHT22;8843;48.838;9.324;2022-10-18T07:34:11;16.90;88.00
17452;DHT22;8843;48.838;9.324;2022-10-18T07:36:38;16.90;88.10
17452;DHT22;8843;48.838;9.324;2022-10-18T07:39:07;16.90;88.20
17452;DHT22;8843;48.838;9.324;2022-10-18T07:41:34;16.90;88.10
17452;DHT22;8843;48.838;9.324;2022-10-18T07:44:02;16.90;88.50
17452;DHT22;8843;48.838;9.324;2022-10-18T07:46:29;16.90;88.40
17452;DHT22;8843;48.838;9.324;2022-10-18T07:48:56;16.90;88.40
17452;DHT22;8843;48.838;9.324;2022-10-18T07:51:25;16.90;88.60
17452;DHT22;8843;48.838;9.324;2022-10-18T07:53:52;16.90;88.60
17452;DHT22;8843;48.838;9.324;2022-10-18T07:56:21;16.90;89.40
17452;DHT22;8843;48.838;9.324;2022-10-18T07:58:49;16.90;89.20
17452;DHT22;8843;48.838;9.324;2022-10-18T08:01:17;16.90;90.00
17452;DHT22;8843;48.838;9.324;2022-10-18T08:03:44;16.90;89.80
17452;DHT22;8843;48.838;9.324;2022-10-18T08:06:13;16.90;90.00
17452;DHT22;8843;48.838;9.324;2022-10-18T08:08:40;16.90;90.00
17452;DHT22;8843;48.838;9.324;2022-10-18T08:11:09;17.00;90.10
17452;DHT22;8843;48.838;9.324;2022-10-18T08:13:37;17.00;90.40
17452;DHT22;8843;48.838;9.324;2022-10-18T08:16:06;17.00;90.30
17452;DHT22;8843;48.838;9.324;2022-10-18T08:18:33;17.00;90.40
17452;DHT22;8843;48.838;9.324;2022-10-18T08:21:01;17.00;90.40
17452;DHT22;8843;48.838;9.324;2022-10-18T08:23:28;17.00;90.40
17452;DHT22;8843;48.838;9.324;2022-10-18T08:25:55;17.00;90.60
17452;DHT22;8843;48.838;9.324;2022-10-18T08:28:22;17.00;90.90
17452;DHT22;8843;48.838;9.324;2022-10-18T08:30:50;17.00;91.20
17452;DHT22;8843;48.838;9.324;2022-10-18T08:33:17;17.10;91.10
17452;DHT22;8843;48.838;9.324;2022-10-18T08:35:53;17.10;91.40
17452;DHT22;8843;48.838;9.324;2022-10-18T08:38:20;17.10;91.40
17452;DHT22;8843;48.838;9.324;2022-10-18T08:40:47;17.10;91.50
17452;DHT22;8843;48.838;9.324;2022-10-18T08:43:23;17.10;91.10
17452;DHT22;8843;48.838;9.324;2022-10-18T08:45:53;17.20;91.20
17452;DHT22;8843;48.838;9.324;2022-10-18T08:48:24;17.20;91.30
17452;DHT22;8843;48.838;9.324;2022-10-18T08:50:56;17.20;91.40
17452;DHT22;8843;48.838;9.324;2022-10-18T08:53:28;17.20;91.70
17452;DHT22;8843;48.838;9.324;2022-10-18T08:56:02;17.20;91.30
17452;DHT22;8843;48.838;9.324;2022-10-18T08:58:31;17.20;91.40
17452;DHT22;8843;48.838;9.324;2022-10-18T09:01:07;17.20;91.40
17452;DHT22;8843;48.838;9.324;2022-10-18T09:04:00;17.30;91.60
17452;DHT22;8843;48.838;9.324;2022-10-18T09:06:34;17.30;91.40
17452;DHT22;8843;48.838;9.324;2022-10-18T09:09:24;17.30;91.60
17452;DHT22;8843;48.838;9.324;2022-10-18T09:12:02;17.40;91.60
17452;DHT22;8843;48.838;9.324;2022-10-18T09:17:29;17.40;92.10
17452;DHT22;8843;48.838;9.324;2022-10-18T09:20:08;17.40;92.00
17452;DHT22;8843;48.838;9.324;2022-10-18T09:22:47;17.40;91.90
17452;DHT22;8843;48.838;9.324;2022-10-18T09:25:18;17.50;92.20
17452;DHT22;8843;48.838;9.324;2022-10-18T09:27:51;17.50;92.20
17452;DHT22;8843;48.838;9.324;2022-10-18T09:30:31;17.60;92.30
17452;DHT22;8843;48.838;9.324;2022-10-18T09:33:14;17.60;92.00
17452;DHT22;8843;48.838;9.324;2022-10-18T09:35:47;17.60;91.80
17452;DHT22;8843;48.838;9.324;2022-10-18T09:38:18;17.60;91.90
17452;DHT22;8843;48.838;9.324;2022-10-18T09:40:51;17.60;91.80
17452;DHT22;8843;48.838;9.324;2022-10-18T09:43:21;17.70;91.80
17452;DHT22;8843;48.838;9.324;2022-10-18T09:45:51;17.60;91.30
17452;DHT22;8843;48.838;9.324;2022-10-18T09:48:22;17.70;91.80
17452;DHT22;8843;48.838;9.324;2022-10-18T09:50:56;17.80;91.70
17452;DHT22;8843;48.838;9.324;2022-10-18T09:53:29;17.80;92.00
17452;DHT22;8843;48.838;9.324;2022-10-18T09:56:02;17.80;91.60
17452;DHT22;8843;48.838;9.324;2022-10-18T09:58:41;17.80;91.70
17452;DHT22;8843;48.838;9.324;2022-10-18T10:01:10;17.90;91.70
17452;DHT22;8843;48.838;9.324;2022-10-18T10:03:39;18.00;92.50
17452;DHT22;8843;48.838;9.324;2022-10-18T10:06:21;18.10;91.90
17452;DHT22;8843;48.838;9.324;2022-10-18T10:08:53;18.20;92.40
17452;DHT22;8843;48.838;9.324;2022-10-18T10:11:30;18.40;92.10
17452;DHT22;8843;48.838;9.324;2022-10-18T10:16:47;18.40;91.30
17452;DHT22;8843;48.838;9.324;2022-10-18T10:19:18;18.40;91.10
17452;DHT22;8843;48.838;9.324;2022-10-18T10:21:47;18.40;90.90
17452;DHT22;8843;48.838;9.324;2022-10-18T10:24:21;18.60;92.20
17452;DHT22;8843;48.838;9.324;2022-10-18T10:26:56;18.90;92.10
17452;DHT22;8843;48.838;9.324;2022-10-18T10:29:54;19.00;91.70
17452;DHT22;8843;48.838;9.324;2022-10-18T10:32:24;19.30;92.00
17452;DHT22;8843;48.838;9.324;2022-10-18T10:34:53;19.60;91.60
17452;DHT22;8843;48.838;9.324;2022-10-18T10:37:26;19.80;91.20
17452;DHT22;8843;48.838;9.324;2022-10-18T10:40:17;20.00;90.90
17452;DHT22;8843;48.838;9.324;2022-10-18T10:42:56;20.30;91.70
17452;DHT22;8843;48.838;9.324;2022-10-18T10:45:25;20.60;90.90
17452;DHT22;8843;48.838;9.324;2022-10-18T10:47:54;20.80;90.60
17452;DHT22;8843;48.838;9.324;2022-10-18T10:50:29;21.00;90.20
17452;DHT22;8843;48.838;9.324;2022-10-18T10:52:56;21.10;89.00
17452;DHT22;8843;48.838;9.324;2022-10-18T10:55:26;21.20;89.60
17452;DHT22;8843;48.838;9.324;2022-10-18T10:57:55;21.50;86.80
17452;DHT22;8843;48.838;9.324;2022-10-18T11:00:35;21.70;87.40
17452;DHT22;8843;48.838;9.324;2022-10-18T11:03:06;21.60;86.50
17452;DHT22;8843;48.838;9.324;2022-10-18T11:05:46;21.90;87.30
17452;DHT22;8843;48.838;9.324;2022-10-18T11:08:15;22.00;85.90
17452;DHT22;8843;48.838;9.324;2022-10-18T11:10:55;22.10;86.50
17452;DHT22;8843;48.838;9.324;2022-10-18T11:13:32;22.40;85.50
17452;DHT22;8843;48.838;9.324;2022-10-18T11:16:06;22.30;84.70
17452;DHT22;8843;48.838;9.324;2022-10-18T11:18:36;22.20;83.20
17452;DHT22;8843;48.838;9.324;2022-10-18T11:21:09;22.10;83.10
17452;DHT22;8843;48.838;9.324;2022-10-18T11:23:41;21.90;83.00
17452;DHT22;8843;48.838;9.324;2022-10-18T11:26:25;21.90;83.40
17452;DHT22;8843;48.838;9.324;2022-10-18T11:29:14;21.80;82.20
17452;DHT22;8843;48.838;9.324;2022-10-18T11:31:47;21.60;81.20
17452;DHT22;8843;48.838;9.324;2022-10-18T11:37:24;21.50;83.00
17452;DHT22;8843;48.838;9.324;2022-10-18T11:40:00;21.60;84.90
17452;DHT22;8843;48.838;9.324;2022-10-18T11:42:32;21.50;83.30
17452;DHT22;8843;48.838;9.324;2022-10-18T11:45:10;21.60;83.70
17452;DHT22;8843;48.838;9.324;2022-10-18T11:47:47;21.50;84.50
17452;DHT22;8843;48.838;9.324;2022-10-18T11:50:21;21.60;84.10
17452;DHT22;8843;48.838;9.324;2022-10-18T11:52:57;21.60;84.50
17452;DHT22;8843;48.838;9.324;2022-10-18T11:55:39;21.70;84.30
17452;DHT22;8843;48.838;9.324;2022-10-18T11:58:21;21.80;83.00
17452;DHT22;8843;48.838;9.324;2022-10-18T12:00:52;21.70;82.00
17452;DHT22;8843;48.838;9.324;2022-10-18T12:03:30;21.60;82.10
17452;DHT22;8843;48.838;9.324;2022-10-18T12:06:03;21.60;82.10
17452;DHT22;8843;48.838;9.324;2022-10-18T12:08:36;21.40;82.60
17452;DHT22;8843;48.838;9.324;2022-10-18T12:11:10;21.30;81.50
17452;DHT22;8843;48.838;9.324;2022-10-18T12:13:42;21.00;81.00
17452;DHT22;8843;48.838;9.324;2022-10-18T12:16:10;20.80;81.60
17452;DHT22;8843;48.838;9.324;2022-10-18T12:18:46;21.00;82.70
17452;DHT22;8843;48.838;9.324;2022-10-18T12:21:14;21.00;81.60
17452;DHT22;8843;48.838;9.324;2022-10-18T12:23:46;21.00;84.60
17452;DHT22;8843;48.838;9.324;2022-10-18T12:26:15;21.00;83.10
17452;DHT22;8843;48.838;9.324;2022-10-18T12:28:48;21.30;84.20
17452;DHT22;8843;48.838;9.324;2022-10-18T12:31:22;21.30;83.30
17452;DHT22;8843;48.838;9.324;2022-10-18T12:33:52;21.30;84.10
17452;DHT22;8843;48.838;9.324;2022-10-18T12:36:48;21.50;84.20
17452;DHT22;8843;48.838;9.324;2022-10-18T12:39:22;21.50;84.20
17452;DHT22;8843;48.838;9.324;2022-10-18T12:41:53;21.70;84.00
17452;DHT22;8843;48.838;9.324;2022-10-18T12:44:25;21.40;84.00
17452;DHT22;8843;48.838;9.324;2022-10-18T12:46:55;21.20;81.80
17452;DHT22;8843;48.838;9.324;2022-10-18T12:49:26;21.00;85.10
17452;DHT22;8843;48.838;9.324;2022-10-18T12:51:55;21.50;83.60
17452;DHT22;8843;48.838;9.324;2022-10-18T12:54:28;21.50;83.40
17452;DHT22;8843;48.838;9.324;2022-10-18T12:56:55;21.60;82.70
17452;DHT22;8843;48.838;9.324;2022-10-18T12:59:49;21.80;82.40
17452;DHT22;8843;48.838;9.324;2022-10-18T13:02:28;21.70;78.70
17452;DHT22;8843;48.838;9.324;2022-10-18T13:04:57;21.90;84.20
17452;DHT22;8843;48.838;9.324;2022-10-18T13:07:36;22.10;83.10
17452;DHT22;8843;48.838;9.324;2022-10-18T13:10:39;22.10;83.00
17452;DHT22;8843;48.838;9.324;2022-10-18T13:13:36;22.30;83.20
17452;DHT22;8843;48.838;9.324;2022-10-18T13:16:20;22.30;79.60
17452;DHT22;8843;48.838;9.324;2022-10-18T13:18:53;22.20;78.90
17452;DHT22;8843;48.838;9.324;2022-10-18T13:21:30;22.00;80.70
17452;DHT22;8843;48.838;9.324;2022-10-18T13:24:11;22.20;81.30
17452;DHT22;8843;48.838;9.324;2022-10-18T13:26:49;21.70;80.70
17452;DHT22;8843;48.838;9.324;2022-10-18T13:29:33;21.80;81.50
17452;DHT22;8843;48.838;9.324;2022-10-18T13:32:12;21.50;80.20
17452;DHT22;8843;48.838;9.324;2022-10-18T13:34:43;21.30;79.90
17452;DHT22;8843;48.838;9.324;2022-10-18T13:37:20;21.20;81.90
17452;DHT22;8843;48.838;9.324;2022-10-18T13:39:50;21.50;82.20
17452;DHT22;8843;48.838;9.324;2022-10-18T13:42:31;21.60;80.90
17452;DHT22;8843;48.838;9.324;2022-10-18T13:45:42;21.40;79.70
17452;DHT22;8843;48.838;9.324;2022-10-18T13:48:43;21.50;82.00
17452;DHT22;8843;48.838;9.324;2022-10-18T13:51:24;21.60;81.60
17452;DHT22;8843;48.838;9.324;2022-10-18T13:53:59;21.60;81.80
17452;DHT22;8843;48.838;9.324;2022-10-18T13:56:45;21.50;82.50
17452;DHT22;8843;48.838;9.324;2022-10-18T13:59:33;21.40;81.90
17452;DHT22;8843;48.838;9.324;2022-10-18T14:05:46;21.30;81.90
17452;DHT22;8843;48.838;9.324;2022-10-18T14:08:16;21.20;82.70
17452;DHT22;8843;48.838;9.324;2022-10-18T14:10:51;21.30;82.90
17452;DHT22;8843;48.838;9.324;2022-10-18T14:13:23;21.20;82.70
17452;DHT22;8843;48.838;9.324;2022-10-18T14:15:58;21.30;82.70
17452;DHT22;8843;48.838;9.324;2022-10-18T14:18:27;21.20;81.60
17452;DHT22;8843;48.838;9.324;2022-10-18T14:21:00;21.10;82.10
17452;DHT22;8843;48.838;9.324;2022-10-18T14:23:33;21.00;82.60
17452;DHT22;8843;48.838;9.324;2022-10-18T14:26:12;21.00;82.80
17452;DHT22;8843;48.838;9.324;2022-10-18T14:28:39;21.00;83.10
17452;DHT22;8843;48.838;9.324;2022-10-18T14:31:12;21.00;83.50
17452;DHT22;8843;48.838;9.324;2022-10-18T14:33:42;20.70;83.60
17452;DHT22;8843;48.838;9.324;2022-10-18T14:36:12;20.50;85.10
17452;DHT22;8843;48.838;9.324;2022-10-18T14:38:46;20.30;85.60
17452;DHT22;8843;48.838;9.324;2022-10-18T14:41:15;20.60;85.50
17452;DHT22;8843;48.838;9.324;2022-10-18T14:43:42;20.60;85.00
17452;DHT22;8843;48.838;9.324;2022-10-18T14:46:20;20.70;84.70
17452;DHT22;8843;48.838;9.324;2022-10-18T14:48:54;20.70;84.50
17452;DHT22;8843;48.838;9.324;2022-10-18T14:51:22;20.70;84.20
17452;DHT22;8843;48.838;9.324;2022-10-18T14:53:49;20.70;84.10
17452;DHT22;8843;48.838;9.324;2022-10-18T14:56:22;20.40;82.80
17452;DHT22;8843;48.838;9.324;2022-10-18T14:58:50;20.40;84.50
17452;DHT22;8843;48.838;9.324;2022-10-18T15:01:21;20.50;84.60
17452;DHT22;8843;48.838;9.324;2022-10-18T15:03:49;20.40;84.30
17452;DHT22;8843;48.838;9.324;2022-10-18T15:06:17;20.50;84.40
17452;DHT22;8843;48.838;9.324;2022-10-18T15:08:47;20.40;84.20
17452;DHT22;8843;48.838;9.324;2022-10-18T15:11:15;20.40;84.60
17452;DHT22;8843;48.838;9.324;2022-10-18T15:13:47;20.40;84.20
17452;DHT22;8843;48.838;9.324;2022-10-18T15:16:16;20.40;84.40
17452;DHT22;8843;48.838;9.324;2022-10-18T15:18:58;20.30;84.40
17452;DHT22;8843;48.838;9.324;2022-10-18T15:21:25;20.30;85.30
17452;DHT22;8843;48.838;9.324;2022-10-18T15:23:52;20.30;85.00
17452;DHT22;8843;48.838;9.324;2022-10-18T15:26:23;20.20;84.70
17452;DHT22;8843;48.838;9.324;2022-10-18T15:28:52;20.10;84.70
17452;DHT22;8843;48.838;9.324;2022-10-18T15:31:24;20.10;84.70
17452;DHT22;8843;48.838;9.324;2022-10-18T15:33:53;20.10;84.80
17452;DHT22;8843;48.838;9.324;2022-10-18T15:36:26;20.10;84.90
17452;DHT22;8843;48.838;9.324;2022-10-18T15:39:04;20.00;84.50
17452;DHT22;8843;48.838;9.324;2022-10-18T15:41:45;20.00;85.10
17452;DHT22;8843;48.838;9.324;2022-10-18T15:44:22;20.00;84.90
17452;DHT22;8843;48.838;9.324;2022-10-18T15:46:51;20.00;85.10
17452;DHT22;8843;48.838;9.324;2022-10-18T15:52:37;19.90;84.90
17452;DHT22;8843;48.838;9.324;2022-10-18T15:55:44;19.90;85.10
17452;DHT22;8843;48.838;9.324;2022-10-18T15:58:15;19.90;85.40
17452;DHT22;8843;48.838;9.324;2022-10-18T16:00:43;19.80;85.30
17452;DHT22;8843;48.838;9.324;2022-10-18T16:03:10;19.80;85.60
17452;DHT22;8843;48.838;9.324;2022-10-18T16:05:38;19.70;86.20
17452;DHT22;8843;48.838;9.324;2022-10-18T16:08:19;19.50;87.60
17452;DHT22;8843;48.838;9.324;2022-10-18T16:10:46;19.60;86.30
17452;DHT22;8843;48.838;9.324;2022-10-18T16:13:14;19.60;85.90
17452;DHT22;8843;48.838;9.324;2022-10-18T16:15:40;19.60;86.10
17452;DHT22;8843;48.838;9.324;2022-10-18T16:18:10;19.60;86.00
17452;DHT22;8843;48.838;9.324;2022-10-18T16:20:39;19.60;86.00
17452;DHT22;8843;48.838;9.324;2022-10-18T16:23:13;19.50;85.80
17452;DHT22;8843;48.838;9.324;2022-10-18T16:25:41;19.50;85.80
17452;DHT22;8843;48.838;9.324;2022-10-18T16:28:11;19.50;85.80